Time;durP1;ratioP1;P1;durP2;ratioP2;P2;SDS_P1;SDS_P2;PMS_P1;PMS_P2;Temp;Humidity;BMP_temperature;BMP_pressure;BME280_temperature;BME280_humidity;BME280_pressure;Samples;Min_cycle;Max_cycle;Signal;HPM_P1;HPM_P2
2023/06/05 00:03:29;;;;;;;2.35;1.13;;;;;;;15.63;41.01;98124.38;10460042;28;20087;-75
2023/06/05 00:08:51;;;;;;;5.75;1.33;;;;;;;15.62;40.85;98130.63;10487517;28;20060;-75
2023/06/05 00:14:12;;;;;;;2.78;1.33;;;;;;;15.56;41.22;98121.84;10487260;28;20067;-75
2023/06/05 00:19:34;;;;;;;2.92;1.20;;;;;;;15.54;41.21;98116.06;10472932;28;20076;-76
2023/06/05 00:24:55;;;;;;;2.53;1.23;;;;;;;15.50;41.37;98118.69;10473614;28;20048;-76
2023/06/05 00:30:16;;;;;;;2.38;1.15;;;;;;;15.44;41.72;98131.09;10486649;28;20513;-75
2023/06/05 00:35:36;;;;;;;2.65;1.08;;;;;;;15.42;41.74;98116.16;10486507;28;20435;-76
2023/06/05 00:40:57;;;;;;;3.17;0.98;;;;;;;15.43;41.79;98131.69;10459069;28;20068;-75
2023/06/05 00:46:18;;;;;;;3.50;1.00;;;;;;;15.40;41.96;98118.88;10458089;28;20087;-76
2023/06/05 00:51:40;;;;;;;2.60;0.95;;;;;;;15.41;42.30;98117.50;10458332;28;20191;-75
2023/06/05 00:57:01;;;;;;;8.32;1.30;;;;;;;15.28;42.23;98124.56;10471727;28;20047;-75
2023/06/05 01:02:22;;;;;;;5.20;1.67;;;;;;;15.32;42.50;98132.47;10457872;28;20102;-75
2023/06/05 01:07:43;;;;;;;2.03;1.30;;;;;;;15.23;42.50;98131.28;10457371;28;20067;-76
2023/06/05 01:13:09;;;;;;;2.13;1.05;;;;;;;15.20;42.63;98129.00;10484967;28;20504;-76
2023/06/05 01:18:31;;;;;;;3.45;1.58;;;;;;;15.17;42.79;98131.69;10457979;28;20397;-75
2023/06/05 01:23:53;;;;;;;3.35;1.30;;;;;;;15.10;42.80;98129.91;10471097;28;20454;-75
2023/06/05 01:29:14;;;;;;;4.03;1.50;;;;;;;15.08;43.33;98129.78;10484604;28;20091;-75
2023/06/05 01:34:35;;;;;;;3.40;1.05;;;;;;;15.06;43.25;98128.94;10456709;28;20098;-76
2023/06/05 01:39:56;;;;;;;5.15;1.10;;;;;;;15.03;43.54;98111.22;10457677;28;20072;-77
2023/06/05 01:45:17;;;;;;;5.00;1.90;;;;;;;14.98;43.63;98117.97;10487814;28;20064;-76
2023/06/05 01:50:38;;;;;;;3.30;1.20;;;;;;;14.88;43.88;98123.75;10458581;28;20047;-76
2023/06/05 01:55:59;;;;;;;2.65;1.30;;;;;;;14.77;44.26;98118.19;10485416;28;20044;-76
2023/06/05 02:01:22;;;;;;;3.88;1.27;;;;;;;14.68;44.33;98121.88;10457175;28;20064;-76
2023/06/05 02:06:44;;;;;;;3.13;1.30;;;;;;;14.57;44.26;98118.50;10457861;28;20060;-76
2023/06/05 02:12:06;;;;;;;5.85;1.33;;;;;;;14.49;44.84;98126.44;10470971;28;20740;-76
2023/06/05 02:17:28;;;;;;;2.47;1.17;;;;;;;14.40;45.07;98121.66;10485180;28;20076;-76
2023/06/05 02:22:51;;;;;;;3.15;1.50;;;;;;;14.33;45.36;98117.03;10479297;28;20048;-77
2023/06/05 02:28:13;;;;;;;3.35;1.20;;;;;;;14.28;45.63;98107.66;10479003;28;20175;-76
2023/06/05 02:33:34;;;;;;;3.65;1.38;;;;;;;14.28;45.67;98101.28;10465371;28;20530;-76
2023/06/05 02:38:54;;;;;;;4.22;1.40;;;;;;;14.28;45.86;98104.09;10506919;28;20051;-76
2023/06/05 02:44:15;;;;;;;5.28;1.40;;;;;;;14.21;46.04;98086.16;10477784;28;20498;-76
2023/06/05 02:49:37;;;;;;;2.35;1.15;;;;;;;14.20;46.03;98098.00;10463625;28;20438;-76
2023/06/05 02:54:58;;;;;;;4.30;1.58;;;;;;;14.16;46.55;98095.69;10463944;28;20394;-76
2023/06/05 03:00:18;;;;;;;4.25;1.75;;;;;;;14.19;46.64;98088.88;10476730;28;20052;-76
2023/06/05 03:05:45;;;;;;;3.17;1.45;;;;;;;14.25;46.61;98086.41;10477735;28;20079;-76
2023/06/05 03:11:10;;;;;;;3.50;1.33;;;;;;;14.27;46.67;98080.88;10463710;28;20045;-76
2023/06/05 03:16:41;;;;;;;4.20;1.30;;;;;;;14.37;47.15;98086.38;10476363;28;20041;-76
2023/06/05 03:22:04;;;;;;;3.20;1.35;;;;;;;14.33;46.83;98084.06;10478237;28;20051;-76
2023/06/05 03:27:26;;;;;;;2.78;1.23;;;;;;;14.40;46.82;98085.16;10480930;28;20456;-77
2023/06/05 03:32:47;;;;;;;4.10;1.52;;;;;;;14.47;46.78;98092.59;10495056;28;20064;-76
2023/06/05 03:38:09;;;;;;;3.78;1.42;;;;;;;14.64;46.83;98087.91;10466868;28;20048;-77
2023/06/05 03:43:31;;;;;;;3.20;1.38;;;;;;;14.83;46.85;98087.59;10464535;28;20474;-75
2023/06/05 03:48:55;;;;;;;3.22;1.40;;;;;;;15.15;46.58;98088.66;10457437;28;20044;-77
2023/06/05 03:54:16;;;;;;;4.32;1.70;;;;;;;15.34;46.28;98079.16;10460166;28;20037;-78
2023/06/05 03:59:38;;;;;;;3.13;1.40;;;;;;;15.55;46.46;98090.16;10458301;28;20496;-76
2023/06/05 04:05:01;;;;;;;5.28;1.50;;;;;;;15.72;46.34;98095.31;10458883;28;20490;-75
2023/06/05 04:10:22;;;;;;;4.45;2.50;;;;;;;15.97;45.78;98096.59;10461015;28;20036;-76
2023/06/05 04:15:44;;;;;;;4.18;2.28;;;;;;;16.14;46.08;98095.34;10474090;28;20032;-76
2023/06/05 04:21:05;;;;;;;3.05;1.98;;;;;;;16.13;46.13;98094.63;10442328;28;20063;-77
2023/06/05 04:26:27;;;;;;;6.20;2.30;;;;;;;16.10;46.30;98112.75;10454196;28;20064;-78
2023/06/05 04:31:50;;;;;;;6.47;2.03;;;;;;;16.08;46.68;98123.19;10447753;28;20398;-77
2023/06/05 04:37:12;;;;;;;7.22;2.35;;;;;;;16.10;47.04;98117.66;10450141;28;20120;-75
2023/06/05 04:42:33;;;;;;;6.68;2.05;;;;;;;16.17;47.18;98113.81;10435856;28;20044;-73
2023/06/05 04:47:56;;;;;;;5.43;1.85;;;;;;;16.24;47.04;98105.03;10470245;28;20111;-75
2023/06/05 04:53:18;;;;;;;6.07;2.03;;;;;;;16.62;47.14;98119.59;10450073;28;20041;-74
2023/06/05 04:58:39;;;;;;;8.35;2.25;;;;;;;16.88;46.98;98109.63;10478234;28;20037;-75
2023/06/05 05:04:01;;;;;;;5.88;1.70;;;;;;;17.41;46.80;98108.59;10447793;28;20060;-75
2023/06/05 05:09:23;;;;;;;5.15;2.35;;;;;;;17.85;45.89;98104.28;10481102;28;20094;-75
2023/06/05 05:14:46;;;;;;;6.45;2.05;;;;;;;18.35;44.97;98107.88;10477776;28;20679;-75
2023/06/05 05:20:07;;;;;;;8.43;2.70;;;;;;;18.80;44.72;98109.75;10474575;28;20095;-74
2023/06/05 05:25:31;;;;;;;8.80;3.30;;;;;;;18.80;44.06;98104.09;10459639;28;20475;-75
2023/06/05 05:30:51;;;;;;;4.93;2.70;;;;;;;18.45;44.56;98102.66;10458990;28;20514;-75
2023/06/05 05:36:14;;;;;;;6.13;3.42;;;;;;;18.10;44.57;98105.38;10449672;28;20044;-75
2023/06/05 05:41:35;;;;;;;6.15;3.03;;;;;;;17.84;45.20;98114.13;10428980;28;20049;-74
2023/06/05 05:46:56;;;;;;;4.88;2.58;;;;;;;17.85;45.97;98115.56;10442145;28;20045;-74
2023/06/05 05:52:20;;;;;;;8.82;2.80;;;;;;;17.96;45.85;98114.69;10428025;28;20044;-74
2023/06/05 05:57:43;;;;;;;6.20;3.53;;;;;;;18.37;45.64;98127.75;10455381;28;20045;-75
2023/06/05 06:03:06;;;;;;;7.22;3.08;;;;;;;19.37;45.39;98126.19;10470128;28;20055;-75
2023/06/05 06:08:28;;;;;;;5.90;3.13;;;;;;;20.36;43.17;98126.31;10469119;28;20098;-75
2023/06/05 06:13:49;;;;;;;9.25;3.28;;;;;;;21.40;41.68;98130.53;10482833;28;20048;-74
2023/06/05 06:19:14;;;;;;;8.10;3.58;;;;;;;22.06;39.79;98127.50;10468873;28;20072;-75
2023/06/05 06:24:34;;;;;;;7.78;2.72;;;;;;;22.40;39.40;98129.88;10469835;28;20040;-75
2023/06/05 06:29:56;;;;;;;8.25;3.30;;;;;;;22.22;38.52;98130.84;10476844;28;20044;-74
2023/06/05 06:35:17;;;;;;;8.20;2.95;;;;;;;22.92;38.16;98127.69;10474478;28;20041;-75
2023/06/05 06:40:38;;;;;;;8.63;2.60;;;;;;;23.85;36.12;98126.31;10460049;28;20041;-75
2023/06/05 06:46:00;;;;;;;5.70;2.90;;;;;;;24.17;34.88;98131.22;10442284;28;20041;-75
2023/06/05 06:51:24;;;;;;;7.22;2.78;;;;;;;24.14;34.69;98138.31;10454463;28;20036;-75
2023/06/05 06:56:45;;;;;;;5.03;2.60;;;;;;;24.61;33.57;98131.41;10433973;28;20045;-75
2023/06/05 07:02:13;;;;;;;8.55;2.88;;;;;;;25.64;32.46;98137.34;10431344;28;20057;-75
2023/06/05 07:07:34;;;;;;;8.13;2.80;;;;;;;25.62;31.85;98120.91;10455231;28;20048;-75
2023/06/05 07:12:55;;;;;;;7.18;2.38;;;;;;;25.87;30.87;98124.84;10445966;28;20067;-75
2023/06/05 07:18:17;;;;;;;7.68;2.58;;;;;;;26.44;30.51;98122.69;10464763;28;20045;-75
2023/06/05 07:23:39;;;;;;;5.35;1.98;;;;;;;27.28;29.83;98120.56;10443607;28;20044;-74
2023/06/05 07:29:00;;;;;;;13.38;2.05;;;;;;;27.65;27.80;98116.53;10453390;28;20102;-74
2023/06/05 07:34:21;;;;;;;12.80;2.28;;;;;;;27.68;27.33;98125.88;10460665;28;20474;-74
2023/06/05 07:39:43;;;;;;;8.32;2.05;;;;;;;27.34;27.53;98117.75;10460197;28;20059;-74
2023/06/05 07:45:04;;;;;;;6.47;2.17;;;;;;;27.84;26.22;98110.91;10460616;28;20040;-75
2023/06/05 07:50:25;;;;;;;5.20;2.00;;;;;;;28.07;25.79;98117.44;10487817;28;20041;-75
2023/06/05 07:55:46;;;;;;;5.45;1.52;;;;;;;28.52;24.40;98118.34;10459658;28;20417;-75
2023/06/05 08:01:07;;;;;;;4.77;1.70;;;;;;;28.52;24.02;98106.84;10465894;28;20556;-75
2023/06/05 08:06:29;;;;;;;6.93;1.70;;;;;;;29.10;23.33;98113.41;10388911;28;20545;-75
2023/06/05 08:11:50;;;;;;;;;;;;;;;29.55;22.88;98106.19;10412183;28;20041;-75
2023/06/05 08:17:11;;;;;;;12.82;1.73;;;;;;;29.62;23.03;98106.88;10441845;28;19921;-75
2023/06/05 08:22:32;;;;;;;6.80;1.60;;;;;;;29.97;22.40;98101.72;10407931;28;20510;-75
2023/06/05 08:27:53;;;;;;;11.97;2.40;;;;;;;29.05;23.07;98107.66;10411719;28;20055;-75
2023/06/05 08:33:14;;;;;;;6.80;2.00;;;;;;;27.99;23.58;98100.94;10430793;28;20533;-75
2023/06/05 08:38:37;;;;;;;5.85;1.67;;;;;;;27.04;24.89;98101.78;10428293;28;20556;-76
2023/06/05 08:44:01;;;;;;;4.97;1.77;;;;;;;26.70;25.42;98101.44;10444050;28;20041;-74
2023/06/05 08:49:24;;;;;;;7.97;2.03;;;;;;;26.51;25.80;98091.97;10430161;28;20466;-75
2023/06/05 08:54:45;;;;;;;11.93;2.47;;;;;;;25.88;26.46;98106.25;10418234;28;20042;-75
2023/06/05 09:00:09;;;;;;;3.88;1.70;;;;;;;25.58;26.80;98106.56;10448242;28;20042;-74
2023/06/05 09:05:31;;;;;;;6.68;1.92;;;;;;;25.18;27.30;98109.53;10409238;28;20107;-74
2023/06/05 09:10:52;;;;;;;8.13;2.10;;;;;;;24.81;28.04;98106.06;10402194;28;20395;-75
2023/06/05 09:16:12;;;;;;;8.25;2.25;;;;;;;24.08;29.40;98101.81;10427305;28;20055;-75
2023/06/05 09:21:34;;;;;;;7.30;1.90;;;;;;;24.05;29.61;98108.91;10427998;28;20044;-76
2023/06/05 09:26:57;;;;;;;5.10;2.15;;;;;;;24.30;30.01;98103.66;10455747;28;20112;-76
2023/06/05 09:32:20;;;;;;;4.18;2.00;;;;;;;24.14;29.86;98104.81;10442309;28;20037;-75
2023/06/05 09:37:45;;;;;;;7.95;2.35;;;;;;;24.54;29.76;98098.44;10455532;28;20119;-77
2023/06/05 09:43:14;;;;;;;6.20;2.17;;;;;;;24.77;29.24;98105.25;10427981;28;20041;-76
2023/06/05 09:48:36;;;;;;;7.70;2.10;;;;;;;24.89;29.32;98088.31;10428250;28;20501;-77
2023/06/05 09:53:58;;;;;;;5.32;2.00;;;;;;;25.28;28.56;98089.69;10441290;28;20402;-75
2023/06/05 09:59:21;;;;;;;8.40;1.88;;;;;;;25.23;28.31;98093.91;10455189;28;20094;-77
2023/06/05 10:04:46;;;;;;;4.35;1.95;;;;;;;25.33;28.92;98090.47;10466659;28;20059;-75
2023/06/05 10:10:09;;;;;;;5.40;1.90;;;;;;;24.95;28.87;98088.44;10453929;28;20040;-76
2023/06/05 10:15:31;;;;;;;5.20;1.98;;;;;;;24.95;28.77;98087.72;10445975;28;20041;-74
2023/06/05 10:20:52;;;;;;;4.10;2.00;;;;;;;24.70;28.73;98078.00;10433957;28;20057;-75
2023/06/05 10:26:56;;;;;;;5.72;1.73;;;;;;;24.99;28.75;98079.19;10456875;28;20056;-76
2023/06/05 10:32:31;;;;;;;5.35;2.08;;;;;;;25.28;28.55;98081.09;10465775;28;20103;-74
2023/06/05 10:37:59;;;;;;;4.70;1.73;;;;;;;25.82;27.49;98082.59;10467011;28;20048;-75
2023/06/05 10:43:29;;;;;;;3.88;1.70;;;;;;;26.00;27.02;98070.66;10489183;28;20048;-74
2023/06/05 10:49:19;;;;;;;5.88;1.85;;;;;;;26.12;26.38;98077.22;10474452;28;20041;-76
2023/06/05 10:54:44;;;;;;;6.38;1.73;;;;;;;25.81;26.81;98067.56;10459089;28;20106;-76
2023/06/05 11:00:07;;;;;;;5.20;1.90;;;;;;;25.59;27.15;98070.13;10463564;28;21477;-77
2023/06/05 11:05:29;;;;;;;8.38;1.98;;;;;;;25.04;27.41;98075.03;10437424;28;20124;-75
2023/06/05 11:11:03;;;;;;;3.05;1.55;;;;;;;24.40;28.52;98078.19;10459718;28;20118;-83
2023/06/05 11:16:28;;;;;;;5.25;2.25;;;;;;;23.54;30.23;98070.75;10472487;28;20049;-80
2023/06/05 11:22:07;;;;;;;4.55;2.03;;;;;;;23.07;30.68;98075.41;10459345;28;20040;-80
2023/06/05 11:27:45;;;;;;;4.38;2.30;;;;;;;22.75;31.77;98071.75;10445666;28;20039;-84
2023/06/05 11:33:12;;;;;;;3.33;2.00;;;;;;;22.07;33.08;98071.41;10467021;28;20041;-84
2023/06/05 11:38:34;;;;;;;8.18;2.33;;;;;;;21.85;34.08;98068.66;10478619;28;20040;-76
2023/06/05 11:43:58;;;;;;;4.72;1.85;;;;;;;21.96;34.94;98076.78;10471536;28;20041;-76
2023/06/05 11:49:25;;;;;;;6.85;3.47;;;;;;;21.12;41.46;98089.88;10477766;28;20066;-75
2023/06/05 11:54:53;;;;;;;8.13;3.00;;;;;;;20.36;44.76;98094.41;10448587;28;20114;-76
2023/06/05 12:00:16;;;;;;;5.88;3.13;;;;;;;19.90;47.91;98105.56;10448966;28;20452;-74
2023/06/05 12:05:37;;;;;;;6.73;3.50;;;;;;;19.25;51.67;98112.28;10463522;28;20049;-73
2023/06/05 12:11:02;;;;;;;7.38;3.50;;;;;;;18.77;54.04;98108.22;10465324;28;20438;-73
2023/06/05 12:16:36;;;;;;;7.25;3.92;;;;;;;18.39;59.86;98132.75;10459529;28;20039;-73
2023/06/05 12:22:05;;;;;;;9.98;4.28;;;;;;;17.65;65.24;98121.00;10467961;28;20383;-73
2023/06/05 12:27:32;;;;;;;6.35;3.78;;;;;;;17.38;66.91;98130.38;10467367;28;20120;-72
2023/06/05 12:32:53;;;;;;;7.07;4.22;;;;;;;17.13;69.72;98136.19;10491663;28;20044;-72
2023/06/05 12:38:14;;;;;;;9.60;4.32;;;;;;;16.96;70.78;98145.22;10457533;28;20048;-72
2023/06/05 12:43:34;;;;;;;6.65;4.03;;;;;;;16.85;71.92;98121.47;10471246;28;20052;-72
2023/06/05 12:48:57;;;;;;;7.93;4.15;;;;;;;16.86;72.56;98137.75;10443112;28;20036;-72
2023/06/05 12:54:19;;;;;;;6.63;4.27;;;;;;;16.73;73.93;98129.31;10443356;28;20060;-72
2023/06/05 12:59:40;;;;;;;7.68;4.68;;;;;;;16.62;74.79;98130.88;10458817;28;20040;-72
2023/06/05 13:05:04;;;;;;;8.85;4.60;;;;;;;16.48;73.64;98125.25;10441941;28;20053;-72
2023/06/05 13:10:25;;;;;;;6.22;3.67;;;;;;;16.46;74.07;98124.44;10456042;28;20032;-72
2023/06/05 13:15:48;;;;;;;9.90;4.18;;;;;;;16.58;73.42;98125.03;10471164;28;20036;-72
2023/06/05 13:21:08;;;;;;;8.35;4.40;;;;;;;16.68;73.13;98119.91;10472275;28;20048;-73
2023/06/05 13:26:30;;;;;;;8.35;3.67;;;;;;;16.84;72.52;98120.72;10455045;28;20064;-73
2023/06/05 13:31:50;;;;;;;9.15;4.18;;;;;;;17.05;72.76;98119.63;10503925;28;20478;-73
2023/06/05 13:37:12;;;;;;;5.53;3.75;;;;;;;17.00;72.27;98125.72;10518951;28;20044;-72
2023/06/05 13:42:35;;;;;;;8.00;3.50;;;;;;;16.98;71.62;98123.50;10480865;28;20044;-72
2023/06/05 13:47:56;;;;;;;7.05;3.63;;;;;;;16.93;71.71;98118.31;10481357;28;20040;-73
2023/06/05 13:53:20;;;;;;;9.65;4.15;;;;;;;16.90;72.27;98120.31;10499042;28;20151;-73
2023/06/05 13:58:40;;;;;;;8.43;4.15;;;;;;;16.89;73.08;98121.66;10478121;28;20052;-72
2023/06/05 14:04:01;;;;;;;9.20;4.65;;;;;;;16.72;74.15;98117.31;10449038;28;20076;-72
2023/06/05 14:09:23;;;;;;;8.40;4.80;;;;;;;16.78;74.91;98117.59;10427753;28;20044;-72
2023/06/05 14:14:43;;;;;;;6.57;4.88;;;;;;;16.84;74.99;98111.53;10440723;28;20041;-73
2023/06/05 14:20:05;;;;;;;12.75;5.40;;;;;;;16.94;75.38;98108.47;10441851;28;20041;-74
2023/06/05 14:25:26;;;;;;;7.72;4.35;;;;;;;16.84;75.12;98109.44;10455273;28;20041;-74
2023/06/05 14:30:47;;;;;;;8.77;4.28;;;;;;;16.90;75.75;98106.22;10441381;28;20064;-74
2023/06/05 14:36:08;;;;;;;8.27;4.38;;;;;;;16.97;75.71;98102.31;10455210;28;20447;-74
2023/06/05 14:41:32;;;;;;;9.35;4.60;;;;;;;16.99;76.03;98102.41;10441052;28;20045;-74
2023/06/05 14:46:55;;;;;;;5.10;3.85;;;;;;;17.11;75.78;98103.00;10441715;28;20052;-74
2023/06/05 14:52:16;;;;;;;9.13;4.50;;;;;;;17.28;75.64;98101.69;10440862;28;20479;-75
2023/06/05 14:57:36;;;;;;;6.47;4.85;;;;;;;17.21;75.32;98102.03;10427084;28;20076;-75
2023/06/05 15:02:57;;;;;;;9.65;5.60;;;;;;;17.23;75.93;98094.38;10426382;28;20095;-74
2023/06/05 15:08:19;;;;;;;7.57;5.03;;;;;;;17.45;76.49;98092.59;10426788;28;20115;-73
2023/06/05 15:13:40;;;;;;;7.18;5.15;;;;;;;17.44;76.59;98096.03;10450529;28;20281;-72
2023/06/05 15:19:01;;;;;;;6.45;4.45;;;;;;;17.23;76.74;98093.66;10438756;28;20056;-73
2023/06/05 15:24:21;;;;;;;8.38;4.18;;;;;;;16.98;76.45;98086.13;10452282;28;20049;-73
2023/06/05 15:29:42;;;;;;;5.43;3.45;;;;;;;16.65;76.26;98090.16;10445535;28;20059;-71
2023/06/05 15:35:03;;;;;;;5.80;3.00;;;;;;;16.36;76.64;98092.94;10462099;28;20537;-72
2023/06/05 15:40:24;;;;;;;5.28;3.55;;;;;;;16.13;77.50;98088.25;10469506;28;20040;-77
2023/06/05 15:45:45;;;;;;;6.55;3.92;;;;;;;15.88;78.29;98087.00;10468237;28;20505;-78
2023/06/05 15:51:06;;;;;;;6.70;3.70;;;;;;;15.69;79.18;98090.19;10485579;28;20090;-75
2023/06/05 15:56:27;;;;;;;5.70;3.28;;;;;;;15.56;79.77;98085.25;10470172;28;20044;-77
2023/06/05 16:01:49;;;;;;;5.72;3.47;;;;;;;15.42;80.37;98083.13;10479636;28;20114;-77
2023/06/05 16:07:10;;;;;;;4.93;3.37;;;;;;;15.40;81.88;98085.84;10467379;28;20041;-76
2023/06/05 16:12:31;;;;;;;4.50;2.90;;;;;;;15.26;82.50;98087.91;10494609;28;20506;-75
2023/06/05 16:17:52;;;;;;;6.25;3.60;;;;;;;15.17;82.80;98075.47;10492141;28;20041;-75
2023/06/05 16:23:13;;;;;;;5.95;3.60;;;;;;;15.02;84.09;98078.84;10490462;28;20064;-76
2023/06/05 16:28:33;;;;;;;5.60;3.25;;;;;;;14.99;84.97;98076.53;10466576;28;20474;-76
2023/06/05 16:33:54;;;;;;;9.18;3.88;;;;;;;14.96;85.88;98070.09;10460675;28;20463;-76
2023/06/05 16:39:15;;;;;;;6.75;3.92;;;;;;;15.03;85.52;98071.88;10467794;28;20041;-74
2023/06/05 16:44:36;;;;;;;6.35;3.50;;;;;;;14.92;85.11;98075.47;10468043;28;20044;-77
2023/06/05 16:49:57;;;;;;;5.40;2.75;;;;;;;14.81;85.58;98079.06;10483284;28;20052;-73
2023/06/05 16:55:18;;;;;;;5.50;3.17;;;;;;;14.79;85.56;98070.53;10471324;28;20048;-80
2023/06/05 17:00:39;;;;;;;4.72;2.95;;;;;;;14.63;85.22;98070.34;10500225;28;20478;-75
2023/06/05 17:05:59;;;;;;;4.22;2.63;;;;;;;14.48;85.63;98073.69;10471778;28;20087;-75
2023/06/05 17:11:22;;;;;;;5.63;3.03;;;;;;;14.41;86.26;98066.22;10483119;28;20094;-74
2023/06/05 17:16:42;;;;;;;4.47;2.90;;;;;;;14.40;86.69;98071.13;10463079;28;20510;-73
2023/06/05 17:22:03;;;;;;;7.28;3.33;;;;;;;14.38;88.01;98059.78;10479833;28;20040;-72
2023/06/05 17:27:24;;;;;;;4.38;3.05;;;;;;;14.42;88.13;98062.06;10474848;28;20040;-75
2023/06/05 17:32:45;;;;;;;5.10;3.25;;;;;;;14.40;87.73;98050.72;10466431;28;20044;-77
2023/06/05 17:38:06;;;;;;;5.72;3.97;;;;;;;14.38;88.06;98044.97;10476816;28;20064;-72
2023/06/05 17:43:27;;;;;;;5.13;3.63;;;;;;;14.32;88.44;98037.69;10505263;28;20051;-80
2023/06/05 17:48:47;;;;;;;8.60;3.80;;;;;;;14.32;88.54;98046.09;10484907;28;20106;-78
2023/06/05 17:54:09;;;;;;;5.07;3.22;;;;;;;14.38;89.23;98034.50;10495878;28;20044;-78
2023/06/05 17:59:30;;;;;;;6.85;3.63;;;;;;;14.53;89.58;98033.25;10649365;22;20066;-76
2023/06/05 18:04:51;;;;;;;4.60;2.80;;;;;;;14.57;88.73;98030.66;10572994;28;20030;-80
2023/06/05 18:10:12;;;;;;;6.32;3.58;;;;;;;14.60;89.41;98043.47;10572028;28;20036;-75
2023/06/05 18:15:33;;;;;;;7.65;3.67;;;;;;;14.59;90.47;98034.31;10562369;28;20039;-73
2023/06/05 18:20:54;;;;;;;5.15;3.63;;;;;;;14.54;88.99;98023.47;10585143;28;20040;-78
2023/06/05 18:26:20;;;;;;;7.95;3.50;;;;;;;14.52;89.98;98026.16;10580831;28;20401;-78
2023/06/05 18:31:43;;;;;;;8.45;3.30;;;;;;;14.65;90.07;98031.09;10589603;28;20036;-76
2023/06/05 18:37:04;;;;;;;6.43;3.70;;;;;;;14.71;90.59;98031.47;10569727;28;20043;-72
2023/06/05 18:42:25;;;;;;;7.45;4.20;;;;;;;14.74;90.40;98018.97;10579936;28;20054;-80
2023/06/05 18:47:46;;;;;;;5.90;3.15;;;;;;;14.85;90.90;98014.63;10578647;28;20389;-74
2023/06/05 18:53:06;;;;;;;5.75;3.45;;;;;;;14.93;90.98;98017.91;10583435;28;20043;-73
2023/06/05 18:58:27;;;;;;;4.18;3.35;;;;;;;15.01;90.86;98014.81;10561548;28;20096;-77
2023/06/05 19:03:48;;;;;;;5.40;3.40;;;;;;;15.01;89.94;98009.19;10573321;28;20485;-76
2023/06/05 19:09:09;;;;;;;7.53;3.20;;;;;;;14.98;89.82;98016.78;10576172;28;20390;-79
2023/06/05 19:14:30;;;;;;;5.18;3.15;;;;;;;14.93;89.51;98012.28;10575551;28;20533;-73
2023/06/05 19:19:50;;;;;;;8.32;3.95;;;;;;;14.92;89.39;98013.63;10559950;28;20048;-74
2023/06/05 19:25:13;;;;;;;5.43;3.38;;;;;;;14.83;88.97;98004.03;10585263;28;20044;-69
2023/06/05 19:30:34;;;;;;;6.18;3.60;;;;;;;14.80;89.84;98004.53;10557371;28;20062;-74
2023/06/05 19:35:55;;;;;;;6.97;4.00;;;;;;;14.70;89.69;98006.78;10559007;28;20046;-74
2023/06/05 19:41:16;;;;;;;5.50;3.58;;;;;;;14.68;89.37;98004.59;10559838;28;20043;-73
2023/06/05 19:46:38;;;;;;;9.55;3.92;;;;;;;14.63;89.31;97999.38;10540145;28;20067;-73
2023/06/05 19:52:01;;;;;;;7.55;4.47;;;;;;;14.60;90.37;98010.50;10551438;28;20063;-74
2023/06/05 19:57:21;;;;;;;7.00;4.10;;;;;;;14.53;90.09;98005.16;10541451;28;20070;-73
2023/06/05 20:02:42;;;;;;;9.15;5.32;;;;;;;14.50;89.36;98004.31;10515783;28;20051;-72
2023/06/05 20:08:04;;;;;;;7.20;5.22;;;;;;;14.46;90.81;97997.72;10530203;28;20109;-72
2023/06/05 20:13:25;;;;;;;7.90;4.55;;;;;;;14.41;91.02;97996.75;10556322;28;20047;-73
2023/06/05 20:18:49;;;;;;;7.30;5.38;;;;;;;14.39;91.16;97988.22;10522725;28;20051;-71
2023/06/05 20:24:10;;;;;;;;;;;;;;;14.41;91.65;97999.56;10534856;28;20114;-72
2023/06/05 20:29:30;;;;;;;8.10;4.90;;;;;;;14.50;92.06;97995.16;10565181;28;19955;-71
2023/06/05 20:34:51;;;;;;;6.47;4.63;;;;;;;14.49;91.72;97993.69;10556334;28;20059;-72
2023/06/05 20:40:13;;;;;;;7.90;4.53;;;;;;;14.46;92.68;97994.91;10570236;28;20418;-72
2023/06/05 20:45:41;;;;;;;7.03;4.70;;;;;;;14.54;93.05;97989.75;10585260;28;20071;-73
2023/06/05 20:51:07;;;;;;;8.43;4.55;;;;;;;14.57;92.88;97994.13;10570862;28;20063;-71
2023/06/05 20:56:29;;;;;;;6.35;4.47;;;;;;;14.58;92.82;97987.91;10557025;28;20548;-72
2023/06/05 21:01:50;;;;;;;5.30;3.67;;;;;;;14.69;93.72;97991.28;10569596;28;20066;-73
2023/06/05 21:07:11;;;;;;;5.53;4.05;;;;;;;14.72;93.21;97982.34;10555489;28;20043;-73
2023/06/05 21:12:32;;;;;;;8.93;4.63;;;;;;;14.82;93.37;97993.41;10541463;28;20119;-71
2023/06/05 21:17:52;;;;;;;6.22;4.53;;;;;;;14.85;93.76;97978.09;10572452;28;20067;-73
2023/06/05 21:23:13;;;;;;;5.72;4.50;;;;;;;14.90;93.30;97993.84;10557997;28;20063;-74
2023/06/05 21:28:34;;;;;;;5.32;4.28;;;;;;;14.88;93.96;97983.22;10572271;28;20040;-73
2023/06/05 21:33:55;;;;;;;5.55;4.55;;;;;;;14.95;95.39;97983.56;10571246;28;20044;-73
2023/06/05 21:39:16;;;;;;;5.50;4.75;;;;;;;15.01;94.69;97981.81;10571764;28;20491;-73
2023/06/05 21:44:37;;;;;;;5.85;4.60;;;;;;;14.99;94.37;97981.69;10555776;28;20496;-73
2023/06/05 21:49:57;;;;;;;6.63;4.80;;;;;;;14.97;94.71;97978.78;10553530;28;20040;-73
2023/06/05 21:55:18;;;;;;;6.07;4.97;;;;;;;14.96;94.72;97982.94;10553434;28;20130;-73
2023/06/05 22:00:39;;;;;;;8.27;5.57;;;;;;;14.91;96.04;97974.91;10567567;28;20087;-73
2023/06/05 22:06:01;;;;;;;8.68;6.85;;;;;;;14.94;96.82;97980.00;10555005;28;20063;-73
2023/06/05 22:11:24;;;;;;;6.60;5.90;;;;;;;14.94;96.99;97979.28;10569158;28;20066;-74
2023/06/05 22:16:47;;;;;;;;;;;;;;;14.95;96.36;97975.13;10568363;28;20082;-73
2023/06/05 22:22:08;;;;;;;8.65;6.50;;;;;;;14.86;97.24;97974.69;10567767;28;19955;-73
2023/06/05 22:27:29;;;;;;;8.23;6.95;;;;;;;14.79;96.56;97974.97;10567478;28;20063;-73
2023/06/05 22:32:50;;;;;;;8.27;6.90;;;;;;;14.83;97.54;97975.19;10567309;28;20067;-74
2023/06/05 22:38:11;;;;;;;9.27;7.07;;;;;;;14.85;97.71;97966.88;10587473;28;20051;-74
2023/06/05 22:43:32;;;;;;;8.45;6.93;;;;;;;14.84;98.06;97959.78;10561609;28;20119;-72
2023/06/05 22:48:54;;;;;;;8.52;7.32;;;;;;;14.81;97.16;97953.34;10575109;28;20492;-73
2023/06/05 22:54:18;;;;;;;8.40;7.50;;;;;;;14.86;98.32;97962.69;10574654;28;20063;-73
2023/06/05 22:59:40;;;;;;;8.80;6.93;;;;;;;14.86;98.73;97949.41;10589451;28;20071;-74
2023/06/05 23:05:01;;;;;;;8.45;7.55;;;;;;;14.83;98.95;97949.91;10560657;28;20067;-73
2023/06/05 23:10:22;;;;;;;8.15;7.35;;;;;;;14.79;98.88;97947.63;10560563;28;20063;-73
2023/06/05 23:15:45;;;;;;;8.35;7.45;;;;;;;14.79;99.93;97946.88;10559592;28;20450;-74
2023/06/05 23:21:06;;;;;;;8.85;7.88;;;;;;;14.85;99.53;97944.38;10560469;28;20473;-75
2023/06/05 23:26:27;;;;;;;9.98;7.85;;;;;;;14.76;99.08;97936.88;10573339;28;20070;-73
2023/06/05 23:31:49;;;;;;;9.90;8.10;;;;;;;14.63;100.00;97937.56;10559030;28;20071;-73
2023/06/05 23:37:10;;;;;;;10.68;8.35;;;;;;;14.64;100.00;97942.56;10559513;28;20115;-74
2023/06/05 23:42:31;;;;;;;9.93;7.75;;;;;;;14.65;99.93;97937.66;10572779;28;20055;-73
2023/06/05 23:47:51;;;;;;;9.85;7.95;;;;;;;14.63;100.00;97929.13;10572433;28;20070;-74
2023/06/05 23:53:12;;;;;;;9.18;7.10;;;;;;;14.58;99.44;97928.94;10544273;28;20117;-73
2023/06/05 23:58:32;;;;;;;8.93;7.18;;;;;;;14.61;100.00;97932.56;10543773;28;20119;-74
